sensor_id;sensor_type;location;lat;lon;timestamp;P1;durP1;ratioP1;P2;durP2;ratioP2
55663;SDS011;41540;57.880;12.164;2023-07-20T00:01:47;12.30;;;3.97;;
55663;SDS011;41540;57.880;12.164;2023-07-20T00:11:48;13.15;;;4.15;;
55663;SDS011;41540;57.880;12.164;2023-07-20T00:21:59;9.52;;;3.03;;
55663;SDS011;41540;57.880;12.164;2023-07-20T00:32:43;5.97;;;3.47;;
55663;SDS011;41540;57.880;12.164;2023-07-20T00:43:43;8.82;;;3.85;;
55663;SDS011;41540;57.880;12.164;2023-07-20T00:53:43;8.45;;;3.35;;
55663;SDS011;41540;57.880;12.164;2023-07-20T01:03:48;10.10;;;3.00;;
55663;SDS011;41540;57.880;12.164;2023-07-20T01:13:48;11.05;;;3.83;;
55663;SDS011;41540;57.880;12.164;2023-07-20T01:23:57;8.10;;;2.78;;
55663;SDS011;41540;57.880;12.164;2023-07-20T01:34:21;6.55;;;2.08;;
55663;SDS011;41540;57.880;12.164;2023-07-20T01:44:23;9.32;;;2.63;;
55663;SDS011;41540;57.880;12.164;2023-07-20T01:54:24;7.32;;;3.05;;
55663;SDS011;41540;57.880;12.164;2023-07-20T02:04:24;7.43;;;2.60;;
55663;SDS011;41540;57.880;12.164;2023-07-20T02:14:24;7.32;;;3.80;;
55663;SDS011;41540;57.880;12.164;2023-07-20T02:24:25;10.40;;;3.50;;
55663;SDS011;41540;57.880;12.164;2023-07-20T02:34:25;7.68;;;3.10;;
55663;SDS011;41540;57.880;12.164;2023-07-20T02:44:26;3.95;;;2.85;;
55663;SDS011;41540;57.880;12.164;2023-07-20T02:54:26;7.40;;;3.15;;
55663;SDS011;41540;57.880;12.164;2023-07-20T03:04:27;15.63;;;3.70;;
55663;SDS011;41540;57.880;12.164;2023-07-20T03:14:27;7.45;;;3.08;;
55663;SDS011;41540;57.880;12.164;2023-07-20T03:24:28;14.48;;;3.13;;
55663;SDS011;41540;57.880;12.164;2023-07-20T03:34:29;8.32;;;2.65;;
55663;SDS011;41540;57.880;12.164;2023-07-20T03:44:29;9.38;;;2.42;;
55663;SDS011;41540;57.880;12.164;2023-07-20T03:54:30;9.65;;;2.65;;
55663;SDS011;41540;57.880;12.164;2023-07-20T04:04:31;3.13;;;1.88;;
55663;SDS011;41540;57.880;12.164;2023-07-20T04:14:31;1.38;;;1.17;;
55663;SDS011;41540;57.880;12.164;2023-07-20T04:24:32;6.15;;;2.05;;
55663;SDS011;41540;57.880;12.164;2023-07-20T04:34:32;4.70;;;1.92;;
55663;SDS011;41540;57.880;12.164;2023-07-20T04:44:37;3.83;;;1.27;;
55663;SDS011;41540;57.880;12.164;2023-07-20T04:54:37;5.40;;;1.63;;
55663;SDS011;41540;57.880;12.164;2023-07-20T05:04:38;1.23;;;0.93;;
55663;SDS011;41540;57.880;12.164;2023-07-20T05:14:38;3.03;;;1.30;;
55663;SDS011;41540;57.880;12.164;2023-07-20T05:24:39;2.93;;;1.67;;
55663;SDS011;41540;57.880;12.164;2023-07-20T05:34:39;3.03;;;0.93;;
55663;SDS011;41540;57.880;12.164;2023-07-20T05:44:40;9.90;;;1.20;;
55663;SDS011;41540;57.880;12.164;2023-07-20T05:54:41;2.05;;;0.70;;
55663;SDS011;41540;57.880;12.164;2023-07-20T06:04:41;4.20;;;1.60;;
55663;SDS011;41540;57.880;12.164;2023-07-20T06:14:42;2.30;;;1.42;;
55663;SDS011;41540;57.880;12.164;2023-07-20T06:24:42;4.20;;;1.65;;
55663;SDS011;41540;57.880;12.164;2023-07-20T06:34:42;1.70;;;1.42;;
55663;SDS011;41540;57.880;12.164;2023-07-20T06:44:43;3.42;;;1.40;;
55663;SDS011;41540;57.880;12.164;2023-07-20T06:54:43;7.30;;;1.92;;
55663;SDS011;41540;57.880;12.164;2023-07-20T07:04:44;4.70;;;1.73;;
55663;SDS011;41540;57.880;12.164;2023-07-20T07:14:46;3.10;;;1.23;;
55663;SDS011;41540;57.880;12.164;2023-07-20T07:24:47;4.88;;;1.23;;
55663;SDS011;41540;57.880;12.164;2023-07-20T07:34:47;5.82;;;1.70;;
55663;SDS011;41540;57.880;12.164;2023-07-20T07:44:48;2.38;;;1.35;;
55663;SDS011;41540;57.880;12.164;2023-07-20T07:54:49;4.72;;;1.33;;
55663;SDS011;41540;57.880;12.164;2023-07-20T08:04:49;3.90;;;1.52;;
55663;SDS011;41540;57.880;12.164;2023-07-20T08:14:52;2.10;;;0.75;;
55663;SDS011;41540;57.880;12.164;2023-07-20T08:24:53;2.33;;;0.80;;
55663;SDS011;41540;57.880;12.164;2023-07-20T08:34:54;4.20;;;1.25;;
55663;SDS011;41540;57.880;12.164;2023-07-20T08:44:54;5.15;;;1.20;;
55663;SDS011;41540;57.880;12.164;2023-07-20T08:54:55;3.00;;;0.87;;
55663;SDS011;41540;57.880;12.164;2023-07-20T09:04:56;2.17;;;0.90;;
55663;SDS011;41540;57.880;12.164;2023-07-20T09:14:57;1.67;;;1.00;;
55663;SDS011;41540;57.880;12.164;2023-07-20T09:24:58;1.92;;;0.80;;
55663;SDS011;41540;57.880;12.164;2023-07-20T09:34:58;1.10;;;0.93;;
55663;SDS011;41540;57.880;12.164;2023-07-20T09:44:59;1.52;;;0.77;;
55663;SDS011;41540;57.880;12.164;2023-07-20T09:54:59;1.65;;;0.80;;
55663;SDS011;41540;57.880;12.164;2023-07-20T10:05:01;0.55;;;0.50;;
55663;SDS011;41540;57.880;12.164;2023-07-20T10:25:22;2.53;;;0.85;;
55663;SDS011;41540;57.880;12.164;2023-07-20T10:35:23;1.63;;;0.80;;
55663;SDS011;41540;57.880;12.164;2023-07-20T10:45:47;0.30;;;0.30;;
55663;SDS011;41540;57.880;12.164;2023-07-20T10:55:49;1.77;;;0.82;;
55663;SDS011;41540;57.880;12.164;2023-07-20T11:06:29;3.45;;;1.25;;
55663;SDS011;41540;57.880;12.164;2023-07-20T11:26:40;3.00;;;0.60;;
55663;SDS011;41540;57.880;12.164;2023-07-20T11:36:42;2.00;;;1.23;;
55663;SDS011;41540;57.880;12.164;2023-07-20T11:46:44;3.13;;;1.15;;
55663;SDS011;41540;57.880;12.164;2023-07-20T11:56:45;1.13;;;0.85;;
55663;SDS011;41540;57.880;12.164;2023-07-20T12:06:45;0.68;;;0.60;;
55663;SDS011;41540;57.880;12.164;2023-07-20T12:16:52;2.08;;;0.55;;
55663;SDS011;41540;57.880;12.164;2023-07-20T12:26:57;2.47;;;1.15;;
55663;SDS011;41540;57.880;12.164;2023-07-20T12:36:58;0.73;;;0.52;;
55663;SDS011;41540;57.880;12.164;2023-07-20T12:46:59;1.30;;;0.87;;
55663;SDS011;41540;57.880;12.164;2023-07-20T12:56:59;2.28;;;1.35;;
55663;SDS011;41540;57.880;12.164;2023-07-20T13:06:59;5.30;;;1.25;;
55663;SDS011;41540;57.880;12.164;2023-07-20T13:17:00;2.78;;;1.20;;
55663;SDS011;41540;57.880;12.164;2023-07-20T13:27:00;5.80;;;1.58;;
55663;SDS011;41540;57.880;12.164;2023-07-20T13:37:01;1.92;;;1.13;;
55663;SDS011;41540;57.880;12.164;2023-07-20T13:47:02;3.20;;;0.90;;
55663;SDS011;41540;57.880;12.164;2023-07-20T14:07:03;8.10;;;1.35;;
55663;SDS011;41540;57.880;12.164;2023-07-20T14:17:04;6.40;;;1.67;;
55663;SDS011;41540;57.880;12.164;2023-07-20T14:27:05;6.18;;;1.45;;
55663;SDS011;41540;57.880;12.164;2023-07-20T14:37:05;6.47;;;1.90;;
55663;SDS011;41540;57.880;12.164;2023-07-20T14:47:06;2.60;;;1.20;;
55663;SDS011;41540;57.880;12.164;2023-07-20T14:57:07;6.22;;;1.70;;
55663;SDS011;41540;57.880;12.164;2023-07-20T15:07:14;2.85;;;1.48;;
55663;SDS011;41540;57.880;12.164;2023-07-20T15:17:14;5.23;;;2.13;;
55663;SDS011;41540;57.880;12.164;2023-07-20T15:27:15;3.83;;;1.40;;
55663;SDS011;41540;57.880;12.164;2023-07-20T15:37:16;13.75;;;1.92;;
55663;SDS011;41540;57.880;12.164;2023-07-20T15:47:16;3.38;;;1.63;;
55663;SDS011;41540;57.880;12.164;2023-07-20T15:57:16;2.45;;;1.35;;
55663;SDS011;41540;57.880;12.164;2023-07-20T16:07:17;7.55;;;2.35;;
55663;SDS011;41540;57.880;12.164;2023-07-20T16:17:17;4.18;;;2.67;;
55663;SDS011;41540;57.880;12.164;2023-07-20T16:27:18;8.57;;;2.42;;
55663;SDS011;41540;57.880;12.164;2023-07-20T16:37:18;5.22;;;3.05;;
55663;SDS011;41540;57.880;12.164;2023-07-20T16:47:18;8.38;;;2.25;;
55663;SDS011;41540;57.880;12.164;2023-07-20T16:57:21;7.22;;;2.15;;
55663;SDS011;41540;57.880;12.164;2023-07-20T17:07:21;9.23;;;2.63;;
55663;SDS011;41540;57.880;12.164;2023-07-20T17:17:22;9.77;;;2.55;;
55663;SDS011;41540;57.880;12.164;2023-07-20T17:27:23;7.93;;;3.38;;
55663;SDS011;41540;57.880;12.164;2023-07-20T17:37:23;6.18;;;2.90;;
55663;SDS011;41540;57.880;12.164;2023-07-20T17:47:24;7.80;;;2.13;;
55663;SDS011;41540;57.880;12.164;2023-07-20T17:57:24;8.55;;;2.92;;
55663;SDS011;41540;57.880;12.164;2023-07-20T18:07:25;8.50;;;3.13;;
55663;SDS011;41540;57.880;12.164;2023-07-20T18:17:25;10.65;;;3.20;;
55663;SDS011;41540;57.880;12.164;2023-07-20T18:27:26;7.95;;;2.95;;
55663;SDS011;41540;57.880;12.164;2023-07-20T18:37:28;20.15;;;3.72;;
55663;SDS011;41540;57.880;12.164;2023-07-20T18:47:28;8.93;;;3.03;;
55663;SDS011;41540;57.880;12.164;2023-07-20T18:57:29;7.32;;;3.30;;
55663;SDS011;41540;57.880;12.164;2023-07-20T19:07:30;10.85;;;3.67;;
55663;SDS011;41540;57.880;12.164;2023-07-20T19:17:30;13.45;;;3.13;;
55663;SDS011;41540;57.880;12.164;2023-07-20T19:27:31;9.40;;;3.07;;
55663;SDS011;41540;57.880;12.164;2023-07-20T19:37:31;15.63;;;3.40;;
55663;SDS011;41540;57.880;12.164;2023-07-20T19:47:32;16.60;;;4.30;;
55663;SDS011;41540;57.880;12.164;2023-07-20T19:57:32;6.82;;;3.22;;
55663;SDS011;41540;57.880;12.164;2023-07-20T20:07:32;16.25;;;4.53;;
55663;SDS011;41540;57.880;12.164;2023-07-20T20:17:34;15.68;;;4.35;;
55663;SDS011;41540;57.880;12.164;2023-07-20T20:27:35;16.95;;;4.40;;
55663;SDS011;41540;57.880;12.164;2023-07-20T20:37:36;15.40;;;4.32;;
55663;SDS011;41540;57.880;12.164;2023-07-20T20:47:36;12.70;;;3.20;;
55663;SDS011;41540;57.880;12.164;2023-07-20T20:57:38;10.98;;;3.50;;
55663;SDS011;41540;57.880;12.164;2023-07-20T21:07:38;13.93;;;2.95;;
55663;SDS011;41540;57.880;12.164;2023-07-20T21:17:39;15.75;;;4.03;;
55663;SDS011;41540;57.880;12.164;2023-07-20T21:27:39;13.65;;;3.83;;
55663;SDS011;41540;57.880;12.164;2023-07-20T21:37:42;12.13;;;3.75;;
55663;SDS011;41540;57.880;12.164;2023-07-20T21:47:42;12.60;;;3.53;;
55663;SDS011;41540;57.880;12.164;2023-07-20T21:57:43;11.60;;;3.05;;
55663;SDS011;41540;57.880;12.164;2023-07-20T22:07:43;9.90;;;3.67;;
55663;SDS011;41540;57.880;12.164;2023-07-20T22:17:44;13.23;;;3.67;;
55663;SDS011;41540;57.880;12.164;2023-07-20T22:27:45;8.77;;;2.60;;
55663;SDS011;41540;57.880;12.164;2023-07-20T22:37:45;15.32;;;3.85;;
55663;SDS011;41540;57.880;12.164;2023-07-20T22:47:46;13.30;;;4.45;;
55663;SDS011;41540;57.880;12.164;2023-07-20T22:57:47;11.65;;;3.67;;
55663;SDS011;41540;57.880;12.164;2023-07-20T23:07:49;8.27;;;3.22;;
55663;SDS011;41540;57.880;12.164;2023-07-20T23:17:50;10.73;;;3.38;;
55663;SDS011;41540;57.880;12.164;2023-07-20T23:27:50;14.90;;;3.95;;
55663;SDS011;41540;57.880;12.164;2023-07-20T23:37:51;11.30;;;3.90;;
55663;SDS011;41540;57.880;12.164;2023-07-20T23:47:52;11.00;;;3.60;;
55663;SDS011;41540;57.880;12.164;2023-07-20T23:57:52;8.98;;;2.95;;
